< < Back
Terminal Aerodrome Forecast


Current Version              Previous Versions:   1  2  3  4  5  6  7  8  9  

Terminal Aerodrome Forecast

102
FTUS44 KMRX 011123
TAFCHA
TAF
KCHA 011123Z 0112/0212 00000KT 6SM BR SCT050
     FM011400 02005KT P6SM SCT050
     FM020300 00000KT P6SM SCT250=

Latest METAR

999
SAUS80 KWBC 011600 RRD
MTRCHA
METAR KCHA 011553Z VRB04KT 10SM SCT030 BKN300 28/20 A3015 RMK AO2 SLP201
T02830200


USA.gov is the U.S. government's official web portal to all federal, state and local government web resources and services.